Time;durP1;ratioP1;P1;durP2;ratioP2;P2;SDS_P1;SDS_P2;PMS_P1;PMS_P2;Temp;Humidity;BMP_temperature;BMP_pressure;BME280_temperature;BME280_humidity;BME280_pressure;Samples;Min_cycle;Max_cycle;Signal;HPM_P1;HPM_P2
2022/06/20 06:47:49;;;;;;;35.42;10.32;;;;;;;;;;6267660;22;20210;-92
2022/06/20 06:54:21;;;;;;;21.25;8.90;;;;;;;;;;6278528;22;20240;-94
2022/06/20 06:57:30;;;;;;;22.48;8.35;;;;;;;;;;6279090;22;20173;-93
2022/06/20 07:00:39;;;;;;;18.35;9.00;;;;;;;;;;6280155;22;20178;-94
2022/06/20 07:03:50;;;;;;;30.20;8.93;;;;;;;;;;6280951;22;20169;-93
2022/06/20 07:07:01;;;;;;;26.35;9.32;;;;;;;;;;6280225;22;20170;-95
2022/06/20 07:10:14;;;;;;;27.80;9.30;;;;;;;;;;6282505;22;20173;-94
2022/06/20 07:16:51;;;;;;;31.27;9.23;;;;;;;;;;6283340;22;20181;-94
2022/06/20 07:23:22;;;;;;;29.75;10.00;;;;;;;;;;6283201;22;20149;-94
2022/06/20 10:02:11;;;;;;;17.17;7.90;;;;;;;;;;6293390;22;20217;-94
2022/06/20 10:05:21;;;;;;;20.88;7.95;;;;;;;;;;6270537;22;20345;-91
2022/06/20 10:08:29;;;;;;;18.63;8.13;;;;;;;;;;6265917;22;20651;-95
2022/06/20 10:11:40;;;;;;;14.77;6.90;;;;;;;;;;6264770;22;20173;-94
2022/06/20 10:14:51;;;;;;;23.92;8.27;;;;;;;;;;6264277;22;20507;-92
2022/06/20 10:18:02;;;;;;;20.17;9.75;;;;;;;;;;6265349;22;20165;-95
2022/06/20 10:21:10;;;;;;;17.63;7.68;;;;;;;;;;6264987;22;20241;-94
2022/06/20 10:24:36;;;;;;;21.05;8.05;;;;;;;;;;6264405;22;20166;-94
2022/06/20 10:27:45;;;;;;;17.90;8.32;;;;;;;;;;6266032;22;20149;-94
2022/06/20 15:33:58;;;;;;;12.93;5.05;;;;;;;;;;6280499;22;20169;-91
2022/06/20 15:40:28;;;;;;;14.70;4.40;;;;;;;;;;6277085;22;20593;-94
2022/06/20 15:43:38;;;;;;;13.15;4.50;;;;;;;;;;6277618;22;20165;-94
2022/06/20 15:46:46;;;;;;;10.40;4.90;;;;;;;;;;6277718;22;20149;-91
2022/06/20 15:49:56;;;;;;;10.65;4.78;;;;;;;;;;6276967;22;20237;-94
2022/06/20 15:53:18;;;;;;;12.00;5.57;;;;;;;;;;6277430;22;20162;-95
2022/06/20 15:56:27;;;;;;;13.93;5.38;;;;;;;;;;6276561;22;20193;-93
2022/06/20 15:59:44;;;;;;;16.83;5.22;;;;;;;;;;6278683;22;20215;-92
2022/06/20 16:03:04;;;;;;;15.75;5.40;;;;;;;;;;6280234;22;20252;-96
2022/06/20 16:06:17;;;;;;;17.23;4.85;;;;;;;;;;6278673;22;20166;-95
2022/06/20 16:09:26;;;;;;;13.02;4.68;;;;;;;;;;6279648;22;20229;-95
2022/06/20 16:12:34;;;;;;;10.05;5.07;;;;;;;;;;6279239;22;20190;-94
2022/06/20 16:15:43;;;;;;;14.80;5.38;;;;;;;;;;6279741;22;20193;-91
2022/06/20 16:18:50;;;;;;;13.13;4.88;;;;;;;;;;6279037;22;20193;-94
2022/06/20 16:22:00;;;;;;;10.40;4.45;;;;;;;;;;6278988;22;20186;-94
2022/06/20 16:25:20;;;;;;;12.50;4.75;;;;;;;;;;6279628;22;20166;-94
2022/06/20 16:28:33;;;;;;;13.32;5.18;;;;;;;;;;6279518;22;20170;-93
2022/06/20 16:31:50;;;;;;;10.52;4.93;;;;;;;;;;6280648;22;20173;-94
2022/06/20 16:34:57;;;;;;;8.05;4.85;;;;;;;;;;6280117;22;20241;-91
2022/06/20 16:38:08;;;;;;;15.55;4.60;;;;;;;;;;6278884;22;20203;-91
2022/06/20 16:41:17;;;;;;;14.73;5.15;;;;;;;;;;6280259;22;20150;-94
2022/06/20 16:44:34;;;;;;;12.27;4.72;;;;;;;;;;6279409;22;20170;-93
2022/06/20 16:47:59;;;;;;;10.48;4.30;;;;;;;;;;6280873;22;20165;-93
2022/06/20 16:51:14;;;;;;;11.63;4.38;;;;;;;;;;6279673;22;20166;-93
2022/06/20 16:54:28;;;;;;;16.95;4.85;;;;;;;;;;6280293;22;20153;-93
2022/06/20 16:57:38;;;;;;;10.40;3.78;;;;;;;;;;6278811;22;20170;-92
2022/06/20 17:00:48;;;;;;;7.85;4.03;;;;;;;;;;6279825;22;20170;-93
2022/06/20 17:04:01;;;;;;;16.55;4.75;;;;;;;;;;6279532;22;20169;-93
2022/06/20 17:07:11;;;;;;;9.70;3.47;;;;;;;;;;6280241;22;20161;-93
2022/06/20 17:10:32;;;;;;;9.73;3.50;;;;;;;;;;6279191;22;20212;-93
2022/06/20 17:14:01;;;;;;;10.13;3.90;;;;;;;;;;6279182;22;20158;-94
2022/06/20 17:28:49;;;;;;;9.63;3.70;;;;;;;;;;6279104;22;20676;-94
2022/06/20 17:32:00;;;;;;;11.82;3.83;;;;;;;;;;6276656;22;20158;-96
2022/06/20 17:35:10;;;;;;;11.48;3.70;;;;;;;;;;6278525;22;20213;-93
2022/06/20 17:38:32;;;;;;;7.80;3.13;;;;;;;;;;6277982;22;20211;-94
2022/06/20 17:45:59;;;;;;;11.65;3.22;;;;;;;;;;6298413;22;20481;-92
2022/06/20 17:49:09;;;;;;;8.68;3.25;;;;;;;;;;6280029;22;20212;-92
2022/06/20 17:59:27;;;;;;;6.43;2.55;;;;;;;;;;6283061;22;20154;-93
2022/06/20 18:02:51;;;;;;;7.88;2.65;;;;;;;;;;6284716;22;20173;-94
2022/06/20 21:25:22;;;;;;;5.30;2.47;;;;;;;;;;6295916;22;20134;-92
2022/06/20 21:32:26;;;;;;;9.63;2.42;;;;;;;;;;6300289;22;20201;-92
2022/06/20 21:35:32;;;;;;;7.38;2.72;;;;;;;;;;6279725;22;20189;-92
2022/06/20 21:38:38;;;;;;;9.63;3.50;;;;;;;;;;6281466;22;20218;-92
2022/06/20 21:41:49;;;;;;;10.13;2.88;;;;;;;;;;6281045;22;20185;-93
2022/06/20 21:44:59;;;;;;;8.80;3.58;;;;;;;;;;6280564;22;20219;-93
2022/06/20 21:48:07;;;;;;;9.02;2.75;;;;;;;;;;6279844;22;20174;-92
2022/06/20 21:51:16;;;;;;;7.63;2.30;;;;;;;;;;6281413;22;20497;-93
2022/06/20 21:54:27;;;;;;;7.80;2.90;;;;;;;;;;6281068;22;20161;-93
2022/06/20 21:57:44;;;;;;;10.40;3.45;;;;;;;;;;6280654;22;20175;-94
2022/06/20 22:00:51;;;;;;;7.45;2.70;;;;;;;;;;6280834;22;20173;-93
2022/06/20 22:03:57;;;;;;;6.97;2.80;;;;;;;;;;6279143;22;20174;-93
